Time;durP1;ratioP1;P1;durP2;ratioP2;P2;SDS_P1;SDS_P2;PMS_P1;PMS_P2;Temp;Humidity;BMP_temperature;BMP_pressure;BME280_temperature;BME280_humidity;BME280_pressure;Samples;Min_cycle;Max_cycle;Signal;HPM_P1;HPM_P2
2023/07/12 00:00:31;;;;;;;3.20;2.87;;;;;;;;;;4975995;28;20477;-83
2023/07/12 00:02:57;;;;;;;4.57;4.00;;;;;;;;;;4976078;28;20184;-84
2023/07/12 00:05:24;;;;;;;5.60;3.10;;;;;;;;;;4975961;28;20427;-83
2023/07/12 00:07:50;;;;;;;6.50;3.97;;;;;;;;;;4975312;28;20414;-84
2023/07/12 00:10:21;;;;;;;4.20;3.30;;;;;;;;;;4974073;28;20488;-82
2023/07/12 00:12:47;;;;;;;5.33;2.77;;;;;;;;;;4975278;28;20436;-83
2023/07/12 00:15:21;;;;;;;6.03;3.90;;;;;;;;;;4975096;28;20478;-83
2023/07/12 00:17:47;;;;;;;4.70;3.13;;;;;;;;;;4973306;28;20934;-83
2023/07/12 00:20:22;;;;;;;6.00;3.60;;;;;;;;;;4975229;28;20520;-82
2023/07/12 00:22:50;;;;;;;5.33;3.70;;;;;;;;;;4973485;28;20424;-85
2023/07/12 00:25:17;;;;;;;4.83;4.33;;;;;;;;;;4974013;28;20425;-85
2023/07/12 00:27:43;;;;;;;5.67;4.40;;;;;;;;;;4975672;28;20421;-80
2023/07/12 00:30:11;;;;;;;5.23;4.73;;;;;;;;;;4975568;28;20502;-86
2023/07/12 00:32:37;;;;;;;5.60;4.23;;;;;;;;;;4975471;28;20526;-80
2023/07/12 00:35:03;;;;;;;9.50;4.80;;;;;;;;;;4975170;28;20557;-80
2023/07/12 00:37:29;;;;;;;6.70;5.00;;;;;;;;;;4975537;28;20426;-85
2023/07/12 00:39:57;;;;;;;6.07;5.23;;;;;;;;;;4975062;28;20423;-82
2023/07/12 00:42:26;;;;;;;6.67;5.03;;;;;;;;;;4975314;28;20175;-80
2023/07/12 00:44:56;;;;;;;7.03;4.60;;;;;;;;;;4975215;28;20410;-81
2023/07/12 00:47:22;;;;;;;9.03;5.13;;;;;;;;;;4975353;28;20415;-87
2023/07/12 00:49:48;;;;;;;5.20;4.03;;;;;;;;;;4975254;28;20863;-85
2023/07/12 00:52:16;;;;;;;6.30;3.13;;;;;;;;;;4975141;28;20175;-81
2023/07/12 00:54:50;;;;;;;5.17;3.97;;;;;;;;;;4974665;28;20457;-86
2023/07/12 00:57:16;;;;;;;5.30;4.23;;;;;;;;;;4975090;28;20844;-80
2023/07/12 00:59:42;;;;;;;4.63;4.00;;;;;;;;;;4974758;28;20534;-80
2023/07/12 01:02:09;;;;;;;12.43;5.10;;;;;;;;;;4975042;28;20410;-85
2023/07/12 01:04:46;;;;;;;5.63;5.03;;;;;;;;;;4975191;28;20411;-86
2023/07/12 01:07:13;;;;;;;4.50;4.10;;;;;;;;;;4974930;28;20415;-79
2023/07/12 01:09:39;;;;;;;11.43;7.10;;;;;;;;;;4974514;28;20443;-87
2023/07/12 01:12:05;;;;;;;15.03;7.30;;;;;;;;;;4974886;28;20512;-78
2023/07/12 01:14:31;;;;;;;11.57;6.97;;;;;;;;;;4973510;28;20220;-78
2023/07/12 01:17:02;;;;;;;12.10;6.80;;;;;;;;;;4974721;28;20768;-80
2023/07/12 01:19:28;;;;;;;9.17;6.33;;;;;;;;;;4974634;28;20176;-78
2023/07/12 01:21:55;;;;;;;8.30;6.10;;;;;;;;;;4974696;28;20419;-85
2023/07/12 01:24:22;;;;;;;9.43;5.13;;;;;;;;;;4974260;28;20447;-84
2023/07/12 01:26:49;;;;;;;7.40;5.97;;;;;;;;;;4974593;28;20424;-85
2023/07/12 01:29:15;;;;;;;10.63;5.33;;;;;;;;;;4974516;28;20416;-83
2023/07/12 01:31:42;;;;;;;7.13;4.70;;;;;;;;;;4973157;28;20429;-78
2023/07/12 01:34:08;;;;;;;5.80;4.20;;;;;;;;;;4974477;28;20965;-82
2023/07/12 01:36:34;;;;;;;5.60;4.23;;;;;;;;;;4974348;28;20435;-79
2023/07/12 01:39:01;;;;;;;7.67;5.77;;;;;;;;;;4974088;28;20419;-84
2023/07/12 01:41:27;;;;;;;7.70;5.20;;;;;;;;;;4974440;28;20537;-79
2023/07/12 01:43:53;;;;;;;6.77;4.20;;;;;;;;;;4974275;28;20751;-82
2023/07/12 01:46:20;;;;;;;7.07;4.33;;;;;;;;;;4974361;28;20499;-86
2023/07/12 01:48:46;;;;;;;10.33;6.17;;;;;;;;;;4974342;28;20899;-82
2023/07/12 01:51:12;;;;;;;7.83;4.47;;;;;;;;;;4974343;28;20473;-83
2023/07/12 01:53:38;;;;;;;7.27;5.07;;;;;;;;;;4973891;28;20427;-79
2023/07/12 01:56:05;;;;;;;8.03;4.97;;;;;;;;;;4974069;28;20475;-78
2023/07/12 01:58:31;;;;;;;5.50;3.90;;;;;;;;;;4974218;28;20863;-79
2023/07/12 02:00:58;;;;;;;5.90;4.20;;;;;;;;;;4974223;28;20423;-83
2023/07/12 02:03:24;;;;;;;6.20;3.40;;;;;;;;;;4974313;28;20403;-83
2023/07/12 02:05:50;;;;;;;8.10;3.60;;;;;;;;;;4974147;28;20462;-82
2023/07/12 02:08:15;;;;;;;4.40;2.43;;;;;;;;;;4972547;28;20416;-87
2023/07/12 02:10:42;;;;;;;4.97;2.17;;;;;;;;;;4974192;28;20943;-79
2023/07/12 02:13:08;;;;;;;3.80;2.37;;;;;;;;;;4978036;28;20419;-88
2023/07/12 02:15:36;;;;;;;3.33;2.07;;;;;;;;;;4977914;28;20573;-78
2023/07/12 02:18:02;;;;;;;5.17;2.20;;;;;;;;;;4977979;28;20449;-84
2023/07/12 02:20:28;;;;;;;3.77;1.33;;;;;;;;;;4976781;28;20424;-78
2023/07/12 02:22:55;;;;;;;2.90;1.80;;;;;;;;;;4977949;28;20423;-87
2023/07/12 02:25:21;;;;;;;2.70;1.23;;;;;;;;;;4977802;28;20418;-87
2023/07/12 02:27:47;;;;;;;2.00;1.27;;;;;;;;;;4977772;28;20936;-87
2023/07/12 02:30:23;;;;;;;3.40;1.23;;;;;;;;;;4977733;28;20438;-79
2023/07/12 02:32:49;;;;;;;1.80;0.97;;;;;;;;;;4977809;28;20773;-87
2023/07/12 02:35:16;;;;;;;2.80;0.83;;;;;;;;;;4977673;28;20475;-85
2023/07/12 02:37:42;;;;;;;2.93;0.60;;;;;;;;;;4977815;28;20444;-88
2023/07/12 02:40:09;;;;;;;2.50;1.53;;;;;;;;;;4977278;28;20423;-78
2023/07/12 02:42:35;;;;;;;1.67;1.00;;;;;;;;;;4977780;28;20443;-90
2023/07/12 02:45:01;;;;;;;3.73;1.00;;;;;;;;;;4976569;28;20431;-88
2023/07/12 02:47:27;;;;;;;2.50;0.90;;;;;;;;;;4977546;28;20637;-86
2023/07/12 02:49:56;;;;;;;2.23;0.47;;;;;;;;;;4977792;28;20975;-78
2023/07/12 02:52:22;;;;;;;3.17;0.60;;;;;;;;;;4977439;28;20422;-88
2023/07/12 02:54:48;;;;;;;2.37;0.50;;;;;;;;;;4977079;28;20475;-86
2023/07/12 02:57:15;;;;;;;6.00;1.00;;;;;;;;;;4977398;28;20929;-77
2023/07/12 02:59:41;;;;;;;5.20;1.23;;;;;;;;;;4977212;28;20177;-77
2023/07/12 03:02:08;;;;;;;2.50;1.10;;;;;;;;;;4977134;28;20438;-86
2023/07/12 03:04:33;;;;;;;3.63;0.90;;;;;;;;;;4977384;28;20420;-85
2023/07/12 03:06:59;;;;;;;3.33;0.70;;;;;;;;;;4977197;28;20772;-78
2023/07/12 03:09:25;;;;;;;4.17;1.23;;;;;;;;;;4976834;28;20514;-86
2023/07/12 03:11:51;;;;;;;2.77;1.40;;;;;;;;;;4977061;28;20458;-78
2023/07/12 03:14:21;;;;;;;3.20;0.70;;;;;;;;;;4977360;28;20408;-86
2023/07/12 03:16:47;;;;;;;3.60;1.20;;;;;;;;;;4976756;28;20438;-85
2023/07/12 03:19:13;;;;;;;3.43;1.00;;;;;;;;;;4977073;28;20419;-78
2023/07/12 03:21:39;;;;;;;5.17;1.00;;;;;;;;;;4976804;28;20423;-85
2023/07/12 03:24:06;;;;;;;5.57;1.27;;;;;;;;;;4976521;28;20426;-88
2023/07/12 03:26:32;;;;;;;3.90;1.30;;;;;;;;;;4976891;28;20459;-87
2023/07/12 03:28:58;;;;;;;4.80;0.90;;;;;;;;;;4976889;28;20419;-87
2023/07/12 03:31:24;;;;;;;1.47;0.70;;;;;;;;;;4976766;28;20420;-88
2023/07/12 03:33:50;;;;;;;2.60;0.63;;;;;;;;;;4976658;28;20409;-87
2023/07/12 03:36:17;;;;;;;1.83;0.50;;;;;;;;;;4976513;28;20482;-79
2023/07/12 03:38:43;;;;;;;1.90;0.70;;;;;;;;;;4976215;28;20691;-78
2023/07/12 03:41:10;;;;;;;2.43;0.73;;;;;;;;;;4976562;28;20427;-87
2023/07/12 03:43:36;;;;;;;1.20;0.40;;;;;;;;;;4976545;28;20527;-84
2023/07/12 03:46:03;;;;;;;3.23;0.53;;;;;;;;;;4976558;28;20766;-83
2023/07/12 03:48:31;;;;;;;2.43;0.47;;;;;;;;;;4976387;28;20466;-78
2023/07/12 03:50:57;;;;;;;2.43;0.90;;;;;;;;;;4976416;28;20440;-79
2023/07/12 03:53:23;;;;;;;1.50;0.70;;;;;;;;;;4976069;28;20514;-86
2023/07/12 03:55:50;;;;;;;2.07;1.10;;;;;;;;;;4976169;28;20485;-85
2023/07/12 03:58:17;;;;;;;4.67;1.53;;;;;;;;;;4976322;28;20408;-86
2023/07/12 04:00:44;;;;;;;2.27;0.77;;;;;;;;;;4976172;28;20458;-78
2023/07/12 04:03:11;;;;;;;1.67;0.60;;;;;;;;;;4976230;28;20416;-86
2023/07/12 04:05:37;;;;;;;2.73;0.80;;;;;;;;;;4976172;28;20443;-85
2023/07/12 04:08:03;;;;;;;1.83;0.90;;;;;;;;;;4975592;28;20775;-86
2023/07/12 04:10:29;;;;;;;2.07;0.40;;;;;;;;;;4975801;28;20416;-83
2023/07/12 04:12:55;;;;;;;2.27;0.87;;;;;;;;;;4975915;28;20828;-81
2023/07/12 04:15:21;;;;;;;1.90;0.73;;;;;;;;;;4974537;28;20216;-85
2023/07/12 04:17:47;;;;;;;1.27;0.30;;;;;;;;;;4975814;28;20183;-85
2023/07/12 04:20:13;;;;;;;2.93;0.83;;;;;;;;;;4975789;28;20175;-85
2023/07/12 04:22:39;;;;;;;2.80;0.70;;;;;;;;;;4975466;28;20554;-85
2023/07/12 04:25:05;;;;;;;1.07;0.57;;;;;;;;;;4975731;28;20431;-84
2023/07/12 04:27:31;;;;;;;3.00;0.60;;;;;;;;;;4975686;28;20479;-80
2023/07/12 04:29:57;;;;;;;1.90;0.97;;;;;;;;;;4975545;28;20420;-80
2023/07/12 04:32:23;;;;;;;2.10;0.53;;;;;;;;;;4975390;28;20623;-83
2023/07/12 04:34:49;;;;;;;3.50;1.13;;;;;;;;;;4974940;28;20251;-80
2023/07/12 04:37:17;;;;;;;2.00;0.80;;;;;;;;;;4974796;28;20613;-83
2023/07/12 04:39:43;;;;;;;1.87;0.60;;;;;;;;;;4975041;28;20176;-85
2023/07/12 04:42:09;;;;;;;2.27;0.50;;;;;;;;;;4975399;28;20417;-83
2023/07/12 04:44:35;;;;;;;3.43;0.90;;;;;;;;;;4975206;28;20922;-83
2023/07/12 04:47:01;;;;;;;3.60;1.03;;;;;;;;;;4974940;28;20179;-81
2023/07/12 04:49:27;;;;;;;1.90;0.77;;;;;;;;;;4974909;28;20180;-83
2023/07/12 04:51:53;;;;;;;2.63;1.00;;;;;;;;;;5004209;28;20536;-80
2023/07/12 04:54:19;;;;;;;4.33;2.00;;;;;;;;;;5004612;28;20176;-83
2023/07/12 04:56:45;;;;;;;1.50;0.50;;;;;;;;;;4974000;28;20194;-84
2023/07/12 04:59:11;;;;;;;1.37;0.80;;;;;;;;;;4974589;28;20436;-82
2023/07/12 05:01:37;;;;;;;3.27;1.60;;;;;;;;;;4973528;28;20226;-84
2023/07/12 05:04:03;;;;;;;3.30;0.97;;;;;;;;;;4974599;28;20418;-83
2023/07/12 05:06:29;;;;;;;3.20;0.60;;;;;;;;;;4974864;28;20414;-83
2023/07/12 05:08:55;;;;;;;3.07;1.10;;;;;;;;;;4974527;28;20415;-83
2023/07/12 05:11:21;;;;;;;4.03;1.30;;;;;;;;;;4974674;28;20546;-83
2023/07/12 05:13:46;;;;;;;3.10;1.13;;;;;;;;;;4974803;28;20238;-79
2023/07/12 05:16:12;;;;;;;2.80;1.40;;;;;;;;;;4974716;28;20476;-80
2023/07/12 05:18:38;;;;;;;2.20;0.80;;;;;;;;;;4974834;28;20184;-79
2023/07/12 05:21:04;;;;;;;1.30;0.70;;;;;;;;;;4973468;28;20422;-83
2023/07/12 05:23:30;;;;;;;4.50;0.87;;;;;;;;;;4974661;28;20614;-82
2023/07/12 05:25:56;;;;;;;2.20;0.73;;;;;;;;;;4974630;28;20416;-84
2023/07/12 05:28:23;;;;;;;4.03;1.07;;;;;;;;;;4974691;28;20177;-85
2023/07/12 05:30:49;;;;;;;2.73;0.90;;;;;;;;;;4974806;28;20168;-85
2023/07/12 05:33:15;;;;;;;2.33;0.80;;;;;;;;;;4973359;28;20423;-82
2023/07/12 05:35:41;;;;;;;1.93;0.60;;;;;;;;;;4974452;28;20550;-86
2023/07/12 05:38:08;;;;;;;1.50;1.30;;;;;;;;;;4974209;28;20404;-80
2023/07/12 05:40:34;;;;;;;1.63;0.50;;;;;;;;;;4973331;28;20191;-90
2023/07/12 05:43:00;;;;;;;2.40;0.73;;;;;;;;;;4974499;28;20420;-85
2023/07/12 05:45:26;;;;;;;1.50;0.60;;;;;;;;;;4973538;28;20239;-85
2023/07/12 05:47:52;;;;;;;1.60;0.40;;;;;;;;;;4974405;28;20919;-82
2023/07/12 05:50:19;;;;;;;1.43;0.60;;;;;;;;;;4974380;28;20419;-85
2023/07/12 05:52:45;;;;;;;1.67;0.93;;;;;;;;;;4972740;28;20819;-84
2023/07/12 05:55:12;;;;;;;0.93;0.30;;;;;;;;;;4974025;28;20469;-84
2023/07/12 05:57:38;;;;;;;1.50;0.97;;;;;;;;;;4974273;28;20432;-83
2023/07/12 06:00:06;;;;;;;2.53;1.00;;;;;;;;;;4974824;28;20411;-84
2023/07/12 06:02:32;;;;;;;2.07;0.97;;;;;;;;;;4974646;28;20407;-87
2023/07/12 06:04:58;;;;;;;1.87;1.17;;;;;;;;;;4974526;28;20495;-85
2023/07/12 06:07:24;;;;;;;3.90;1.70;;;;;;;;;;4973848;28;20176;-84
2023/07/12 06:09:50;;;;;;;4.43;2.23;;;;;;;;;;4975080;28;20186;-86
2023/07/12 06:12:16;;;;;;;2.43;2.03;;;;;;;;;;4974119;28;20645;-86
2023/07/12 06:14:42;;;;;;;3.07;2.70;;;;;;;;;;4974115;28;20263;-88
2023/07/12 06:17:07;;;;;;;3.20;2.90;;;;;;;;;;4972913;28;20422;-83
2023/07/12 06:19:34;;;;;;;3.13;2.33;;;;;;;;;;4954829;28;20413;-81
2023/07/12 06:22:00;;;;;;;3.43;2.33;;;;;;;;;;4955534;28;20953;-90
2023/07/12 06:24:25;;;;;;;2.80;1.90;;;;;;;;;;4986932;28;20520;-83
2023/07/12 06:26:51;;;;;;;2.30;2.10;;;;;;;;;;4955625;28;20342;-90
2023/07/12 06:29:17;;;;;;;4.00;1.70;;;;;;;;;;4956479;28;20622;-91
2023/07/12 06:31:43;;;;;;;4.83;3.10;;;;;;;;;;4955437;28;20528;-88
2023/07/12 06:34:10;;;;;;;3.20;1.37;;;;;;;;;;4954964;28;20422;-88
2023/07/12 06:36:35;;;;;;;2.43;1.13;;;;;;;;;;4954920;28;20494;-84
2023/07/12 06:39:02;;;;;;;3.47;1.67;;;;;;;;;;4954749;28;20887;-81
2023/07/12 06:41:28;;;;;;;2.90;1.10;;;;;;;;;;4954730;28;20222;-87
2023/07/12 06:43:54;;;;;;;2.03;1.33;;;;;;;;;;4954875;28;20438;-80
2023/07/12 06:46:20;;;;;;;2.00;1.17;;;;;;;;;;4954693;28;20418;-83
2023/07/12 06:48:46;;;;;;;2.40;1.13;;;;;;;;;;4954617;28;20175;-80
2023/07/12 06:51:12;;;;;;;2.20;1.90;;;;;;;;;;4970155;28;20522;-88
2023/07/12 06:53:41;;;;;;;4.43;1.30;;;;;;;;;;4973825;28;20768;-81
2023/07/12 06:56:07;;;;;;;1.80;1.40;;;;;;;;;;4983958;28;20477;-80
2023/07/12 06:58:33;;;;;;;3.00;2.10;;;;;;;;;;4985268;28;20403;-92
2023/07/12 07:00:59;;;;;;;2.40;1.27;;;;;;;;;;4985228;28;20429;-82
2023/07/12 07:03:25;;;;;;;2.17;0.90;;;;;;;;;;4981584;28;20518;-81
2023/07/12 07:05:51;;;;;;;2.03;1.17;;;;;;;;;;4976978;28;21071;-81
2023/07/12 07:08:18;;;;;;;1.43;1.00;;;;;;;;;;4977983;28;20473;-84
2023/07/12 07:10:45;;;;;;;1.57;1.20;;;;;;;;;;4977601;28;20459;-92
2023/07/12 07:13:10;;;;;;;2.00;1.13;;;;;;;;;;4978618;28;20411;-94
2023/07/12 07:15:36;;;;;;;1.90;1.67;;;;;;;;;;4977634;28;20533;-87
2023/07/12 07:18:02;;;;;;;2.13;1.00;;;;;;;;;;4978217;28;20172;-81
2023/07/12 07:20:28;;;;;;;2.40;1.03;;;;;;;;;;4978573;28;20908;-90
2023/07/12 07:22:54;;;;;;;1.83;1.40;;;;;;;;;;4977332;28;20412;-80
2023/07/12 07:25:20;;;;;;;3.63;1.83;;;;;;;;;;4976562;28;20192;-92
2023/07/12 07:27:46;;;;;;;1.57;1.33;;;;;;;;;;4977071;28;20432;-89
2023/07/12 07:30:13;;;;;;;4.80;1.90;;;;;;;;;;4978443;28;20250;-94
2023/07/12 07:32:39;;;;;;;2.20;1.70;;;;;;;;;;4977820;28;20919;-95
2023/07/12 07:35:06;;;;;;;2.40;1.50;;;;;;;;;;4978173;28;20542;-95
2023/07/12 07:37:32;;;;;;;3.23;1.57;;;;;;;;;;4977305;28;20428;-94
2023/07/12 07:40:04;;;;;;;3.17;1.67;;;;;;;;;;4978047;28;20408;-89
2023/07/12 07:42:30;;;;;;;1.73;0.90;;;;;;;;;;4977175;28;20412;-92
2023/07/12 07:44:56;;;;;;;2.10;1.13;;;;;;;;;;5008738;28;20519;-87
2023/07/12 07:47:22;;;;;;;1.53;0.60;;;;;;;;;;4977452;28;20844;-94
2023/07/12 07:49:48;;;;;;;2.23;0.70;;;;;;;;;;4977130;28;20267;-91
2023/07/12 07:52:14;;;;;;;1.43;0.70;;;;;;;;;;4976793;28;20172;-91
2023/07/12 07:54:40;;;;;;;1.87;0.37;;;;;;;;;;4977122;28;20357;-90
2023/07/12 07:57:06;;;;;;;2.60;0.90;;;;;;;;;;4976826;28;20546;-91
2023/07/12 07:59:32;;;;;;;1.70;0.80;;;;;;;;;;4976860;28;20420;-91
2023/07/12 08:01:58;;;;;;;0.70;0.30;;;;;;;;;;4976927;28;20419;-92
2023/07/12 08:04:25;;;;;;;1.40;0.30;;;;;;;;;;4976694;28;20200;-92
2023/07/12 08:06:51;;;;;;;1.63;0.77;;;;;;;;;;4976404;28;20426;-90
2023/07/12 08:09:17;;;;;;;1.90;0.37;;;;;;;;;;4975207;28;20420;-91
2023/07/12 08:11:43;;;;;;;1.70;0.70;;;;;;;;;;4976221;28;20228;-90
2023/07/12 08:14:09;;;;;;;2.93;0.93;;;;;;;;;;4976338;28;20428;-93
2023/07/12 08:16:37;;;;;;;1.90;0.73;;;;;;;;;;4976554;28;20216;-89
2023/07/12 08:19:04;;;;;;;3.43;0.60;;;;;;;;;;4976371;28;20412;-90
2023/07/12 08:21:30;;;;;;;3.30;0.67;;;;;;;;;;4976400;28;20463;-90
2023/07/12 08:23:56;;;;;;;3.50;1.07;;;;;;;;;;4975880;28;20392;-90
2023/07/12 08:26:21;;;;;;;2.30;0.50;;;;;;;;;;5007276;28;20419;-88
2023/07/12 08:28:47;;;;;;;2.33;0.63;;;;;;;;;;4976072;28;20419;-84
2023/07/12 08:31:14;;;;;;;4.60;1.20;;;;;;;;;;5007340;28;20424;-86
2023/07/12 08:33:41;;;;;;;2.67;0.80;;;;;;;;;;4975865;28;20411;-90
2023/07/12 08:36:07;;;;;;;3.30;1.23;;;;;;;;;;4975747;28;20570;-88
2023/07/12 08:38:33;;;;;;;2.80;1.00;;;;;;;;;;4975253;28;20502;-91
2023/07/12 08:40:59;;;;;;;3.60;0.70;;;;;;;;;;4975675;28;20494;-88
2023/07/12 08:43:29;;;;;;;1.73;0.77;;;;;;;;;;4975576;28;20418;-90
2023/07/12 08:45:56;;;;;;;1.60;0.70;;;;;;;;;;4975874;28;20428;-91
2023/07/12 08:48:23;;;;;;;1.63;0.87;;;;;;;;;;4975687;28;20480;-90
2023/07/12 08:50:50;;;;;;;3.13;0.50;;;;;;;;;;4975795;28;20507;-89
2023/07/12 08:53:18;;;;;;;4.17;0.80;;;;;;;;;;4974973;28;20521;-89
2023/07/12 08:55:44;;;;;;;1.40;0.57;;;;;;;;;;4975317;28;20550;-88
2023/07/12 08:58:13;;;;;;;2.40;1.37;;;;;;;;;;4975337;28;20416;-86
2023/07/12 09:00:41;;;;;;;2.60;0.60;;;;;;;;;;4975505;28;20420;-89
2023/07/12 09:03:06;;;;;;;2.40;0.77;;;;;;;;;;4975364;28;20412;-81
2023/07/12 09:05:33;;;;;;;3.90;0.90;;;;;;;;;;5006672;28;20431;-87
2023/07/12 09:08:17;;;;;;;5.90;1.10;;;;;;;;;;4974901;28;20172;-90
2023/07/12 09:10:47;;;;;;;2.93;0.90;;;;;;;;;;4975080;28;20563;-88
2023/07/12 09:13:14;;;;;;;1.70;0.80;;;;;;;;;;4975164;28;20442;-93
2023/07/12 09:15:44;;;;;;;2.07;1.10;;;;;;;;;;4975125;28;20475;-91
2023/07/12 09:18:22;;;;;;;2.30;1.10;;;;;;;;;;4975328;28;20430;-90
2023/07/12 09:20:50;;;;;;;2.90;1.03;;;;;;;;;;4975047;28;20916;-90
2023/07/12 09:23:16;;;;;;;3.17;1.30;;;;;;;;;;5005899;28;20519;-81
2023/07/12 09:25:47;;;;;;;4.40;1.00;;;;;;;;;;4974983;28;20893;-85
2023/07/12 09:28:14;;;;;;;3.53;0.90;;;;;;;;;;4975107;28;21040;-89
2023/07/12 09:30:41;;;;;;;2.40;1.00;;;;;;;;;;4975101;28;20423;-92
2023/07/12 09:33:16;;;;;;;2.20;0.70;;;;;;;;;;4974875;28;20831;-84
2023/07/12 09:35:45;;;;;;;4.63;1.43;;;;;;;;;;4974968;28;20528;-91
2023/07/12 09:38:13;;;;;;;3.63;0.90;;;;;;;;;;4974507;28;20908;-90
2023/07/12 09:40:40;;;;;;;1.70;0.70;;;;;;;;;;5006100;28;20834;-86
2023/07/12 09:43:15;;;;;;;2.43;0.87;;;;;;;;;;4974685;28;20829;-89
2023/07/12 09:45:42;;;;;;;3.80;0.90;;;;;;;;;;4974862;28;20419;-91
2023/07/12 09:48:20;;;;;;;1.83;0.77;;;;;;;;;;5005966;28;20415;-89
2023/07/12 09:51:00;;;;;;;3.20;1.20;;;;;;;;;;4973788;28;20506;-85
2023/07/12 09:53:56;;;;;;;1.63;0.90;;;29.90;1.00;;;;;;4961148;28;20531;-86
2023/07/12 09:56:34;;;;;;;5.10;0.90;;;30.30;1.00;;;;;;4985445;28;20579;-88
2023/07/12 09:59:17;;;;;;;3.93;1.23;;;31.40;1.00;;;;;;4955229;28;20874;-85
2023/07/12 10:01:53;;;;;;;3.77;0.90;;;31.60;1.00;;;;;;4955052;28;20411;-88
2023/07/12 10:04:36;;;;;;;2.10;0.90;;;31.40;1.00;;;;;;4953855;28;20515;-92
2023/07/12 10:07:12;;;;;;;3.93;1.87;;;31.00;1.00;;;;;;4954781;28;20937;-88
2023/07/12 10:09:39;;;;;;;4.80;1.63;;;30.00;1.00;;;;;;4955361;28;20506;-88
2023/07/12 10:12:09;;;;;;;3.13;1.50;;;29.60;1.00;;;;;;4955294;28;20523;-91
2023/07/12 10:14:38;;;;;;;5.30;1.20;;;29.30;1.00;;;;;;4954886;28;20459;-90
2023/07/12 10:17:05;;;;;;;2.83;0.83;;;29.40;1.00;;;;;;4954884;29;20860;-86
2023/07/12 10:19:37;;;;;;;3.37;1.37;;;30.10;1.00;;;;;;4954927;29;20420;-90
2023/07/12 10:22:11;;;;;;;3.43;1.00;;;30.80;1.00;;;;;;4953278;28;20429;-89
2023/07/12 10:24:48;;;;;;;3.13;1.20;;;31.30;1.00;;;;;;4955044;28;20416;-89
2023/07/12 10:27:21;;;;;;;2.50;0.90;;;32.30;1.00;;;;;;4954834;28;20408;-90
2023/07/12 10:29:58;;;;;;;4.33;1.57;;;32.80;1.00;;;;;;4954770;28;20416;-93
2023/07/12 10:32:30;;;;;;;3.17;1.10;;;33.30;1.00;;;;;;4988488;28;20428;-89
2023/07/12 10:35:36;;;;;;;2.70;1.30;;;32.90;1.00;;;;;;4958365;28;20460;-92
2023/07/12 10:38:15;;;;;;;2.00;0.87;;;32.70;1.00;;;;;;4968139;28;21027;-88
2023/07/12 10:40:47;;;;;;;2.63;1.03;;;33.10;1.00;;;;;;4977604;28;20411;-84
2023/07/12 10:43:39;;;;;;;3.20;0.77;;;33.70;1.00;;;;;;4977647;28;20507;-90
2023/07/12 10:46:25;;;;;;;2.17;0.87;;;34.20;1.00;;;;;;4977508;28;20906;-88
2023/07/12 10:48:54;;;;;;;2.13;1.00;;;34.00;1.00;;;;;;4977808;28;20414;-87
2023/07/12 10:51:38;;;;;;;3.43;1.63;;;32.90;1.00;;;;;;4974143;28;20456;-91
2023/07/12 10:54:05;;;;;;;1.70;1.00;;;32.30;1.00;;;;;;4958174;28;20424;-88
2023/07/12 10:56:54;;;;;;;2.43;1.27;;;32.10;1.00;;;;;;4958159;28;20475;-90
2023/07/12 10:59:31;;;;;;;2.63;1.00;;;32.20;1.00;;;;;;4958275;28;20412;-91
2023/07/12 11:02:22;;;;;;;3.83;1.27;;;32.50;1.00;;;;;;4958339;28;20431;-89
2023/07/12 11:04:49;;;;;;;3.20;1.10;;;32.20;1.00;;;;;;4960240;28;20801;-87
2023/07/12 11:07:14;;;;;;;2.17;0.97;;;32.00;1.00;;;;;;4957697;28;20508;-87
2023/07/12 11:09:46;;;;;;;3.47;1.20;;;31.60;1.00;;;;;;4957945;28;20508;-93
2023/07/12 11:12:37;;;;;;;2.20;1.00;;;31.10;1.00;;;;;;4957749;28;20675;-90
2023/07/12 11:15:12;;;;;;;6.00;1.20;;;31.10;1.00;;;;;;4956586;28;20491;-89
2023/07/12 11:17:52;;;;;;;2.20;0.80;;;31.40;1.00;;;;;;4957653;28;20420;-86
2023/07/12 11:20:23;;;;;;;2.60;1.00;;;31.90;1.00;;;;;;4957910;28;20924;-90
2023/07/12 11:22:51;;;;;;;2.90;0.77;;;31.90;1.00;;;;;;4957514;28;20435;-87
2023/07/12 11:25:24;;;;;;;3.00;1.10;;;31.90;1.00;;;;;;4957712;28;20428;-91
2023/07/12 11:27:53;;;;;;;4.33;1.53;;;31.80;1.00;;;;;;4956253;28;20427;-90
2023/07/12 11:30:27;;;;;;;3.60;1.17;;;32.20;1.00;;;;;;4957678;29;20488;-89
2023/07/12 11:32:58;;;;;;;3.10;1.33;;;32.60;1.00;;;;;;4988675;28;20424;-91
2023/07/12 11:35:47;;;;;;;2.37;1.13;;;32.90;1.00;;;;;;4957211;28;20820;-88
2023/07/12 11:38:28;;;;;;;3.50;1.40;;;32.90;1.00;;;;;;4957080;28;20431;-90
2023/07/12 11:40:55;;;;;;;2.53;0.90;;;32.80;1.00;;;;;;4957642;28;20428;-91
2023/07/12 11:43:32;;;;;;;3.10;1.10;;;32.40;1.00;;;;;;4956160;28;20830;-89
2023/07/12 11:45:57;;;;;;;3.07;0.83;;;31.80;1.00;;;;;;4957559;28;20453;-93
2023/07/12 11:48:27;;;;;;;2.33;1.13;;;31.10;1.00;;;;;;4956628;28;20512;-87
2023/07/12 11:50:53;;;;;;;1.97;0.53;;;30.20;1.00;;;;;;4957986;28;20239;-89
2023/07/12 11:53:20;;;;;;;3.50;1.23;;;29.60;1.00;;;;;;4970083;28;20427;-91
2023/07/12 11:55:51;;;;;;;4.57;2.13;;;29.20;1.00;;;;;;4976366;28;20212;-90
2023/07/12 11:58:22;;;;;;;2.17;0.87;;;29.00;1.00;;;;;;4975225;28;20458;-88
2023/07/12 12:00:50;;;;;;;3.23;1.67;;;28.80;1.00;;;;;;4976346;28;20435;-90
2023/07/12 12:03:17;;;;;;;4.87;1.50;;;28.70;1.00;;;;;;4976264;28;20983;-87
2023/07/12 12:05:44;;;;;;;2.50;1.07;;;28.50;1.00;;;;;;4976287;28;20428;-87
2023/07/12 12:08:25;;;;;;;2.90;0.90;;;28.40;1.00;;;;;;4976250;28;20890;-90
2023/07/12 12:10:55;;;;;;;3.17;0.67;;;28.80;1.00;;;;;;4976417;28;20545;-88
2023/07/12 12:13:20;;;;;;;2.83;1.37;;;29.80;1.00;;;;;;4976106;28;20441;-90
2023/07/12 12:15:48;;;;;;;5.80;0.67;;;30.70;1.00;;;;;;4976090;28;20471;-89
2023/07/12 12:18:17;;;;;;;5.47;1.07;;;31.60;1.00;;;;;;5016605;28;20176;-92
2023/07/12 12:20:52;;;;;;;4.23;0.97;;;31.80;1.00;;;;;;4976000;28;20876;-86
2023/07/12 12:23:26;;;;;;;3.37;1.10;;;32.40;1.00;;;;;;4975451;28;20466;-88
2023/07/12 12:25:52;;;;;;;5.50;1.13;;;33.00;1.00;;;;;;4975913;28;20939;-88
2023/07/12 12:28:26;;;;;;;5.30;1.07;;;33.60;1.00;;;;;;4974491;28;20420;-87
2023/07/12 12:30:59;;;;;;;3.00;0.73;;;34.10;1.00;;;;;;4975725;28;20520;-86
2023/07/12 12:33:27;;;;;;;2.87;0.80;;;34.30;1.00;;;;;;4975453;28;20412;-85
2023/07/12 12:35:59;;;;;;;2.47;0.80;;;33.90;1.00;;;;;;4973733;28;20507;-89
2023/07/12 12:38:31;;;;;;;2.53;1.33;;;33.50;1.00;;;;;;4971166;28;20458;-81
2023/07/12 12:41:15;;;;;;;3.13;0.80;;;33.10;1.00;;;;;;4973917;28;20450;-83
2023/07/12 12:43:57;;;;;;;3.73;1.57;;;32.50;1.00;;;;;;4974635;28;20892;-88
2023/07/12 12:46:23;;;;;;;3.37;0.80;;;31.90;1.00;;;;;;4975161;28;20904;-88
2023/07/12 12:48:51;;;;;;;3.70;0.90;;;31.30;1.00;;;;;;4975141;28;20420;-88
2023/07/12 12:51:17;;;;;;;3.33;1.10;;;30.60;1.00;;;;;;4973303;28;20184;-85
2023/07/12 12:53:43;;;;;;;2.07;0.80;;;30.10;1.00;;;;;;4997259;28;20446;-85
2023/07/12 12:56:11;;;;;;;3.13;1.07;;;29.90;1.00;;;;;;4974847;28;20222;-93
2023/07/12 12:58:37;;;;;;;2.67;1.00;;;30.40;1.00;;;;;;4975205;28;20176;-85
2023/07/12 13:01:02;;;;;;;2.17;0.87;;;30.70;1.00;;;;;;4974626;28;20434;-87
2023/07/12 13:03:28;;;;;;;3.93;2.17;;;30.90;1.00;;;;;;4974909;28;20187;-91
2023/07/12 13:05:53;;;;;;;4.17;0.73;;;31.10;1.00;;;;;;4974876;28;20180;-87
2023/07/12 13:08:19;;;;;;;6.17;1.07;;;31.30;1.00;;;;;;4974353;28;20183;-83
2023/07/12 13:10:44;;;;;;;3.67;1.20;;;31.90;1.00;;;;;;4974542;28;20227;-89
2023/07/12 13:13:15;;;;;;;1.77;0.60;;;32.20;1.00;;;;;;4974691;28;20191;-82
2023/07/12 13:15:41;;;;;;;2.23;0.97;;;32.00;1.00;;;;;;4974645;28;20264;-85
2023/07/12 13:18:12;;;;;;;3.10;1.50;;;31.50;1.00;;;;;;4973429;28;20963;-84
2023/07/12 13:20:38;;;;;;;2.73;0.90;;;31.20;1.00;;;;;;4974683;28;20271;-91
2023/07/12 13:23:03;;;;;;;1.63;0.33;;;30.50;1.00;;;;;;4974031;28;20645;-89
2023/07/12 13:25:30;;;;;;;3.30;0.83;;;29.90;1.00;;;;;;4974297;28;20184;-86
2023/07/12 13:27:56;;;;;;;4.40;0.73;;;29.20;1.00;;;;;;4974160;28;20251;-87
2023/07/12 13:30:26;;;;;;;3.23;0.70;;;28.60;1.00;;;;;;4973519;28;20601;-84
2023/07/12 13:32:52;;;;;;;3.90;1.20;;;27.90;1.00;;;;;;4969428;28;20902;-88
2023/07/12 13:35:21;;;;;;;4.97;1.60;;;27.30;1.00;;;;;;4975475;28;20537;-91
2023/07/12 13:37:47;;;;;;;3.70;1.33;;;26.60;1.00;;;;;;4975878;28;20416;-91
2023/07/12 13:40:16;;;;;;;2.70;1.40;;;25.80;1.00;;;;;;4974379;28;20455;-88
2023/07/12 13:42:46;;;;;;;2.90;0.80;;;25.20;18.80;;;;;;4975021;28;20418;-90
2023/07/12 13:45:13;;;;;;;3.97;1.50;;;24.70;99.90;;;;;;4974997;28;20454;-91
2023/07/12 13:47:41;;;;;;;3.20;1.57;;;24.40;99.90;;;;;;4974922;28;20965;-93
2023/07/12 13:50:17;;;;;;;1.73;0.90;;;24.20;1.00;;;;;;4975419;28;20433;-90
2023/07/12 13:52:43;;;;;;;2.93;1.60;;;24.10;99.90;;;;;;4962702;28;20944;-84
2023/07/12 13:55:16;;;;;;;2.10;1.33;;;23.80;99.90;;;;;;4955508;28;20970;-89
2023/07/12 13:57:47;;;;;;;3.30;1.10;;;23.60;1.00;;;;;;4986846;28;20454;-91
2023/07/12 14:00:18;;;;;;;2.50;0.80;;;23.50;1.00;;;;;;4955854;28;20411;-94
2023/07/12 14:02:50;;;;;;;3.90;1.30;;;23.40;99.90;;;;;;4955642;29;20790;-91
2023/07/12 14:05:18;;;;;;;3.70;1.17;;;23.30;1.00;;;;;;4964307;28;20504;-90
2023/07/12 14:07:44;;;;;;;4.00;1.33;;;23.30;99.90;;;;;;4969474;28;20445;-91
2023/07/12 14:10:20;;;;;;;3.00;0.90;;;23.20;1.00;;;;;;4978688;28;20519;-88
2023/07/12 14:12:46;;;;;;;2.53;0.93;;;23.30;99.90;;;;;;4978131;28;20229;-83
2023/07/12 14:15:21;;;;;;;3.73;1.47;;;23.50;1.00;;;;;;5009837;28;20478;-92